Time;durP1;ratioP1;P1;durP2;ratioP2;P2;SDS_P1;SDS_P2;PMS_P1;PMS_P2;Temp;Humidity;BMP_temperature;BMP_pressure;BME280_temperature;BME280_humidity;BME280_pressure;Samples;Min_cycle;Max_cycle;Signal;HPM_P1;HPM_P2
2022/05/31 00:02:23;;;;;;;3.10;2.12;;;11.30;70.20;;;;;;2373335;56;21623;-74
2022/05/31 00:04:51;;;;;;;2.70;1.98;;;11.30;70.30;;;;;;2374390;56;21102;-74
2022/05/31 00:07:19;;;;;;;3.60;2.17;;;11.30;70.40;;;;;;2373849;56;21043;-74
2022/05/31 00:09:46;;;;;;;3.65;2.40;;;11.30;70.40;;;;;;2374174;56;21110;-74
2022/05/31 00:12:14;;;;;;;5.75;2.10;;;11.30;70.50;;;;;;2374383;56;21043;-74
2022/05/31 00:14:43;;;;;;;3.12;2.37;;;11.40;70.80;;;;;;2373739;56;21035;-74
2022/05/31 00:17:10;;;;;;;2.00;1.73;;;11.30;70.70;;;;;;2373758;56;21046;-74
2022/05/31 00:19:38;;;;;;;3.60;2.12;;;11.40;70.90;;;;;;2373155;56;21090;-75
2022/05/31 00:22:09;;;;;;;3.92;2.28;;;11.30;71.10;;;;;;2374019;56;21035;-74
2022/05/31 00:24:39;;;;;;;2.78;1.83;;;11.30;71.30;;;;;;2374347;56;21126;-74
2022/05/31 00:27:07;;;;;;;5.20;2.22;;;11.40;71.60;;;;;;2373707;56;21055;-74
2022/05/31 00:29:34;;;;;;;2.42;2.15;;;11.40;71.60;;;;;;2374226;56;21126;-75
2022/05/31 00:32:04;;;;;;;3.40;2.90;;;11.40;71.60;;;;;;2373505;56;21530;-74
2022/05/31 00:37:07;;;;;;;2.80;2.17;;;11.40;71.70;;;;;;2335850;57;27730;-74
2022/05/31 00:39:34;;;;;;;3.37;2.15;;;11.00;74.90;;;;;;2375223;56;21047;-74
2022/05/31 00:42:05;;;;;;;3.08;2.10;;;11.20;73.90;;;;;;2375101;56;21620;-74
2022/05/31 00:44:34;;;;;;;3.20;2.50;;;11.30;73.20;;;;;;2375226;56;21034;-74
2022/05/31 00:47:04;;;;;;;3.70;2.37;;;11.40;72.60;;;;;;2374885;56;21043;-74
2022/05/31 00:49:35;;;;;;;3.25;1.92;;;11.40;72.40;;;;;;2628172;52;21039;-74
2022/05/31 00:52:07;;;;;;;2.85;1.70;;;11.40;72.20;;;;;;2375110;56;21115;-74
2022/05/31 00:54:39;;;;;;;2.65;2.00;;;11.40;72.20;;;;;;2375214;56;21110;-74
2022/05/31 00:57:07;;;;;;;5.30;1.90;;;11.30;71.90;;;;;;2375216;56;21118;-74
2022/05/31 00:59:45;;;;;;;3.28;2.25;;;11.40;71.90;;;;;;2375508;56;21125;-74
2022/05/31 01:02:17;;;;;;;3.15;2.20;;;11.30;71.70;;;;;;2375046;56;21573;-74
2022/05/31 01:04:48;;;;;;;4.40;1.98;;;11.30;71.60;;;;;;2374736;56;21027;-74
2022/05/31 01:07:16;;;;;;;2.67;2.12;;;11.30;71.50;;;;;;2628497;52;21063;-75
2022/05/31 01:09:43;;;;;;;2.15;1.92;;;11.40;71.40;;;;;;2375206;56;21031;-74
2022/05/31 01:12:13;;;;;;;2.75;1.90;;;11.30;71.10;;;;;;2375157;56;21130;-74
2022/05/31 01:14:41;;;;;;;3.72;1.83;;;11.30;71.00;;;;;;2375321;56;21043;-75
2022/05/31 01:17:10;;;;;;;2.08;1.75;;;11.30;70.70;;;;;;2374253;56;21644;-75
2022/05/31 01:19:56;;;;;;;2.28;1.65;;;11.30;70.40;;;;;;2375221;56;21078;-75
2022/05/31 01:22:31;;;;;;;3.55;2.17;;;11.40;70.30;;;;;;2374964;56;21047;-75
2022/05/31 01:25:05;;;;;;;2.60;1.65;;;11.30;70.20;;;;;;2375255;56;21030;-75
2022/05/31 01:27:41;;;;;;;3.62;1.90;;;11.20;70.50;;;;;;2375149;56;21115;-75
2022/05/31 01:30:10;;;;;;;5.10;1.80;;;11.20;70.70;;;;;;2375645;56;21111;-75
2022/05/31 01:32:43;;;;;;;3.10;2.25;;;11.20;70.60;;;;;;2375235;56;21050;-75
2022/05/31 01:35:17;;;;;;;2.45;1.83;;;11.20;70.50;;;;;;2374506;56;21206;-75
2022/05/31 01:37:50;;;;;;;3.15;1.92;;;11.20;70.40;;;;;;2375250;56;21038;-75
2022/05/31 01:40:25;;;;;;;2.10;1.87;;;11.10;70.10;;;;;;2375028;56;21106;-75
2022/05/31 01:42:53;;;;;;;2.35;1.77;;;11.10;70.00;;;;;;2375418;56;21031;-75
2022/05/31 01:45:26;;;;;;;2.50;1.98;;;11.10;69.90;;;;;;2374867;56;21106;-75
2022/05/31 01:47:57;;;;;;;2.90;1.80;;;11.10;69.90;;;;;;2374560;56;21619;-75
2022/05/31 01:53:01;;;;;;;3.37;2.20;;;11.10;69.80;;;;;;2334739;57;28306;-75
2022/05/31 01:55:31;;;;;;;2.03;1.85;;;10.60;71.60;;;;;;2346975;57;21069;-75
2022/05/31 01:58:01;;;;;;;1.80;1.70;;;10.90;71.10;;;;;;2356665;56;21202;-75
2022/05/31 02:00:28;;;;;;;2.72;1.80;;;11.00;70.30;;;;;;2375404;56;21114;-75
2022/05/31 02:02:59;;;;;;;4.78;2.05;;;11.00;69.70;;;;;;2375031;56;21102;-75
2022/05/31 02:05:27;;;;;;;2.55;1.83;;;11.00;69.40;;;;;;2374974;56;21062;-75
2022/05/31 02:07:55;;;;;;;2.70;2.10;;;11.10;69.30;;;;;;2628452;52;21051;-75
2022/05/31 02:10:23;;;;;;;2.72;2.42;;;11.00;69.10;;;;;;2375224;56;22221;-75
2022/05/31 02:12:51;;;;;;;4.53;2.30;;;11.00;69.00;;;;;;2374952;56;21611;-75
2022/05/31 02:15:19;;;;;;;2.55;2.03;;;11.00;69.00;;;;;;2374931;56;21177;-75
2022/05/31 02:17:47;;;;;;;2.62;2.00;;;11.00;69.00;;;;;;2375030;56;21090;-75
2022/05/31 02:20:15;;;;;;;2.65;2.05;;;10.90;69.00;;;;;;2628755;52;21035;-75
2022/05/31 02:22:42;;;;;;;3.37;2.35;;;10.90;69.00;;;;;;2374528;56;21106;-75
2022/05/31 02:25:10;;;;;;;2.95;2.60;;;10.90;69.00;;;;;;2628678;52;21086;-75
2022/05/31 02:27:38;;;;;;;3.62;2.20;;;10.90;69.10;;;;;;2374299;56;21039;-75
2022/05/31 02:30:07;;;;;;;3.17;2.30;;;10.90;69.30;;;;;;2375137;56;21647;-75
2022/05/31 02:32:35;;;;;;;3.80;2.70;;;10.80;69.40;;;;;;2375068;56;21110;-75
2022/05/31 02:35:03;;;;;;;3.37;2.60;;;10.80;69.50;;;;;;2375202;56;21042;-75
2022/05/31 02:37:30;;;;;;;3.00;2.60;;;10.70;69.50;;;;;;2374665;56;21039;-75
2022/05/31 02:39:57;;;;;;;2.55;2.35;;;10.70;69.60;;;;;;2375289;56;21031;-74
2022/05/31 02:42:25;;;;;;;3.55;2.42;;;10.70;69.90;;;;;;2375074;56;21042;-75
2022/05/31 02:44:52;;;;;;;2.33;2.12;;;10.70;70.20;;;;;;2374674;56;21046;-75
2022/05/31 02:47:21;;;;;;;3.47;2.53;;;10.60;70.20;;;;;;2374723;56;21608;-75
2022/05/31 02:49:49;;;;;;;4.40;2.92;;;10.60;70.40;;;;;;2375205;56;21095;-75
2022/05/31 02:52:16;;;;;;;4.90;2.75;;;10.60;70.40;;;;;;2374807;56;21060;-75
2022/05/31 02:54:44;;;;;;;3.37;2.53;;;10.50;70.30;;;;;;2375023;56;21079;-75
2022/05/31 02:57:11;;;;;;;4.00;2.55;;;10.50;70.50;;;;;;2628589;52;21046;-75
2022/05/31 02:59:38;;;;;;;2.62;2.30;;;10.50;70.50;;;;;;2374794;56;21634;-75
2022/05/31 03:02:06;;;;;;;4.30;2.45;;;10.40;70.50;;;;;;2375045;56;21090;-75
2022/05/31 03:04:34;;;;;;;3.58;2.72;;;10.40;70.50;;;;;;2374469;56;21098;-75
2022/05/31 03:07:03;;;;;;;4.15;2.72;;;10.40;70.50;;;;;;2373349;56;21115;-75
2022/05/31 03:09:31;;;;;;;3.37;2.28;;;10.40;70.60;;;;;;2374054;56;21087;-75
2022/05/31 03:12:03;;;;;;;2.83;2.15;;;10.30;70.60;;;;;;2374480;56;21078;-75
2022/05/31 03:14:36;;;;;;;3.08;2.40;;;10.30;70.60;;;;;;2374344;56;21039;-75
2022/05/31 03:17:09;;;;;;;4.57;2.45;;;10.40;70.60;;;;;;2373696;56;21039;-75
2022/05/31 03:19:41;;;;;;;3.57;2.50;;;10.30;71.10;;;;;;2374458;56;21035;-75
2022/05/31 03:22:13;;;;;;;3.05;2.03;;;10.30;70.20;;;;;;2374307;56;21046;-75
2022/05/31 03:24:47;;;;;;;4.78;2.85;;;10.30;70.30;;;;;;2373509;56;21098;-75
2022/05/31 03:27:14;;;;;;;3.65;2.75;;;10.30;70.20;;;;;;2373519;56;21055;-75
2022/05/31 03:29:46;;;;;;;3.85;2.20;;;10.30;70.20;;;;;;2374168;56;21103;-74
2022/05/31 03:32:14;;;;;;;2.55;2.12;;;10.20;70.40;;;;;;2373949;56;21039;-75
2022/05/31 03:34:42;;;;;;;3.28;2.55;;;10.20;71.20;;;;;;2374193;56;21038;-75
2022/05/31 03:37:09;;;;;;;3.60;2.55;;;10.20;70.30;;;;;;2373611;56;21178;-75
2022/05/31 03:39:36;;;;;;;2.97;2.58;;;10.20;70.30;;;;;;2374143;56;21113;-75
2022/05/31 03:42:06;;;;;;;4.85;2.65;;;10.20;70.30;;;;;;2373834;56;21039;-75
2022/05/31 03:44:33;;;;;;;3.00;2.70;;;10.20;70.30;;;;;;2374030;56;21050;-75
2022/05/31 03:47:03;;;;;;;3.35;2.53;;;10.20;70.40;;;;;;2373784;56;21043;-75
2022/05/31 03:49:31;;;;;;;9.63;3.20;;;10.10;70.40;;;;;;2374162;56;21051;-75
2022/05/31 03:51:59;;;;;;;3.62;2.65;;;10.20;70.20;;;;;;2374065;56;21039;-75
2022/05/31 03:54:27;;;;;;;2.75;2.40;;;10.20;70.30;;;;;;2373922;56;21055;-75
2022/05/31 03:56:54;;;;;;;3.60;2.75;;;10.20;70.30;;;;;;2373160;56;21122;-75
2022/05/31 03:59:22;;;;;;;4.57;2.80;;;10.20;70.30;;;;;;2373729;56;21043;-75
2022/05/31 04:04:18;;;;;;;6.35;3.15;;;10.20;70.50;;;;;;2245807;57;21056;-75
2022/05/31 04:06:46;;;;;;;4.28;2.83;;;10.10;70.60;;;;;;2215940;61;21092;-75
2022/05/31 04:11:49;;;;;;;4.15;2.85;;;10.10;71.20;;;;;;2356174;57;22114;-75
2022/05/31 04:14:17;;;;;;;6.75;3.50;;;10.10;71.30;;;;;;2347484;57;21164;-76
2022/05/31 04:16:44;;;;;;;4.68;3.10;;;10.10;71.50;;;;;;2346769;57;21543;-77
2022/05/31 04:19:12;;;;;;;4.30;3.20;;;10.10;71.30;;;;;;2370181;56;21149;-76
2022/05/31 04:21:39;;;;;;;3.90;2.80;;;10.10;71.30;;;;;;2375208;56;21055;-76
2022/05/31 04:24:08;;;;;;;3.17;2.75;;;10.10;71.80;;;;;;2377913;52;21123;-76
2022/05/31 04:26:40;;;;;;;5.32;3.08;;;10.10;71.90;;;;;;2373892;56;21047;-76
2022/05/31 04:29:07;;;;;;;4.85;3.08;;;10.10;71.80;;;;;;2374177;56;21062;-76
2022/05/31 04:31:34;;;;;;;3.80;3.00;;;10.10;72.10;;;;;;2459854;52;21541;-76
2022/05/31 04:34:04;;;;;;;4.82;3.60;;;10.20;72.30;;;;;;2373582;56;21094;-77
2022/05/31 04:36:31;;;;;;;4.22;3.22;;;10.20;72.50;;;;;;2373210;56;21111;-77
2022/05/31 04:38:59;;;;;;;3.90;2.45;;;10.20;72.70;;;;;;2373057;56;21133;-75
2022/05/31 04:41:29;;;;;;;3.50;3.03;;;10.20;72.40;;;;;;2374308;56;21106;-77
2022/05/31 04:43:58;;;;;;;4.18;3.20;;;10.20;72.30;;;;;;2372327;56;21098;-76
2022/05/31 04:46:28;;;;;;;4.22;3.40;;;10.20;72.30;;;;;;2373188;56;21133;-76
2022/05/31 04:48:57;;;;;;;4.12;2.37;;;10.20;72.30;;;;;;2373700;56;21055;-76
2022/05/31 04:51:25;;;;;;;3.80;2.97;;;10.30;72.90;;;;;;2375182;56;21098;-76
2022/05/31 04:53:52;;;;;;;4.72;3.15;;;10.30;73.10;;;;;;2374773;56;21054;-76
2022/05/31 04:56:20;;;;;;;4.82;3.20;;;10.30;73.40;;;;;;2374103;56;21708;-76
2022/05/31 04:58:49;;;;;;;4.37;3.47;;;10.30;73.70;;;;;;2374355;56;21158;-76
2022/05/31 05:01:16;;;;;;;3.90;3.20;;;10.40;74.30;;;;;;2374339;56;21047;-77
2022/05/31 05:03:44;;;;;;;4.85;3.37;;;10.40;74.80;;;;;;2375259;56;21034;-76
2022/05/31 05:06:13;;;;;;;4.82;3.40;;;10.40;75.10;;;;;;2373812;56;21019;-76
2022/05/31 05:08:40;;;;;;;5.43;3.37;;;10.40;75.30;;;;;;2374654;56;21071;-76
2022/05/31 05:11:11;;;;;;;5.40;3.55;;;10.50;75.60;;;;;;2373926;56;21111;-76
2022/05/31 05:13:39;;;;;;;6.57;3.65;;;10.50;75.60;;;;;;2373690;56;21090;-76
2022/05/31 05:16:08;;;;;;;4.22;3.30;;;10.60;75.50;;;;;;2373628;56;21106;-76
2022/05/31 05:18:35;;;;;;;5.78;3.45;;;10.60;75.50;;;;;;2374954;56;21031;-76
2022/05/31 05:21:04;;;;;;;4.22;3.20;;;10.70;75.50;;;;;;2373975;56;21042;-76
2022/05/31 05:23:32;;;;;;;5.10;3.08;;;10.70;75.50;;;;;;2373465;56;21023;-76
2022/05/31 05:26:00;;;;;;;5.18;3.22;;;10.80;76.30;;;;;;2372559;56;21106;-76
2022/05/31 05:31:21;;;;;;;3.85;2.70;;;10.90;76.00;;;;;;2513789;52;21066;-74
2022/05/31 05:33:49;;;;;;;5.35;3.30;;;11.00;75.70;;;;;;2374255;56;21126;-76
2022/05/31 05:36:16;;;;;;;3.92;2.92;;;11.00;75.70;;;;;;2373888;56;21087;-76
2022/05/31 05:38:44;;;;;;;4.45;3.00;;;11.00;76.00;;;;;;2374390;56;21047;-76
2022/05/31 05:41:12;;;;;;;2.92;2.45;;;11.00;76.20;;;;;;2374170;56;21106;-76
2022/05/31 05:43:40;;;;;;;6.30;3.72;;;11.10;76.50;;;;;;2373699;56;21173;-76
2022/05/31 05:46:13;;;;;;;4.35;2.40;;;11.10;76.50;;;;;;2373636;56;21106;-74
2022/05/31 05:48:42;;;;;;;3.85;2.72;;;11.10;76.20;;;;;;2374211;56;21047;-76
2022/05/31 05:51:15;;;;;;;2.85;2.45;;;11.20;75.70;;;;;;2374261;56;21130;-76
2022/05/31 05:53:42;;;;;;;4.15;2.58;;;11.30;75.40;;;;;;2374255;56;21054;-76
2022/05/31 05:56:10;;;;;;;3.65;2.40;;;11.30;75.80;;;;;;2374024;56;21122;-76
2022/05/31 05:58:37;;;;;;;3.45;2.33;;;11.40;75.30;;;;;;2373952;56;21118;-76
2022/05/31 06:01:06;;;;;;;3.47;2.72;;;11.40;75.10;;;;;;2373696;56;21612;-76
2022/05/31 06:03:38;;;;;;;6.40;3.25;;;11.50;75.10;;;;;;2374426;56;21039;-76
2022/05/31 06:06:08;;;;;;;4.05;2.97;;;11.50;75.00;;;;;;2374084;56;21039;-76
2022/05/31 06:08:40;;;;;;;4.87;2.35;;;11.60;74.70;;;;;;2374453;56;21047;-76
2022/05/31 06:11:12;;;;;;;3.65;2.40;;;11.60;74.10;;;;;;2395310;52;21031;-76
2022/05/31 06:13:42;;;;;;;3.40;2.33;;;11.70;73.90;;;;;;2374464;56;21045;-76
2022/05/31 06:16:11;;;;;;;3.50;1.98;;;11.70;73.90;;;;;;2372317;56;21532;-76
2022/05/31 06:18:45;;;;;;;2.60;2.10;;;11.80;73.60;;;;;;2374049;56;21039;-76
2022/05/31 06:21:14;;;;;;;4.47;1.98;;;11.90;73.60;;;;;;2374231;56;21031;-76
2022/05/31 06:23:42;;;;;;;4.30;2.65;;;11.90;73.50;;;;;;2373985;56;21050;-76
2022/05/31 06:26:10;;;;;;;4.43;2.25;;;11.90;73.50;;;;;;2373815;56;21047;-76
2022/05/31 06:28:37;;;;;;;2.58;2.17;;;12.00;73.40;;;;;;2373909;56;21074;-76
2022/05/31 06:31:04;;;;;;;2.72;1.87;;;12.00;73.20;;;;;;2373996;56;21055;-76
2022/05/31 06:33:32;;;;;;;2.58;1.30;;;12.00;72.50;;;;;;2373697;56;21063;-76
2022/05/31 06:36:01;;;;;;;2.80;1.65;;;12.00;72.60;;;;;;2373032;56;21577;-76
2022/05/31 06:38:29;;;;;;;1.62;1.12;;;12.00;72.80;;;;;;2374223;56;21125;-76
2022/05/31 06:40:57;;;;;;;3.35;2.00;;;12.10;72.30;;;;;;2373943;56;21069;-76
2022/05/31 06:43:24;;;;;;;2.67;1.60;;;12.20;72.00;;;;;;2374188;56;21616;-76
2022/05/31 06:45:51;;;;;;;3.05;1.40;;;12.30;71.90;;;;;;2373820;56;21043;-76
2022/05/31 06:48:18;;;;;;;6.80;1.80;;;12.30;72.00;;;;;;2374102;56;21031;-76
2022/05/31 06:50:45;;;;;;;2.78;1.70;;;12.30;70.90;;;;;;2373459;56;21221;-76
2022/05/31 06:58:44;;;;;;;2.83;1.60;;;12.40;70.90;;;;;;2373994;52;21014;-74
2022/05/31 07:01:11;;;;;;;2.37;1.20;;;12.40;70.90;;;;;;2373965;56;21126;-76
2022/05/31 07:03:38;;;;;;;1.87;1.20;;;12.40;71.50;;;;;;2374068;56;21058;-75
2022/05/31 07:06:06;;;;;;;3.10;1.20;;;12.40;70.50;;;;;;2373079;56;21059;-76
2022/05/31 07:08:33;;;;;;;1.65;1.30;;;12.50;70.00;;;;;;2374129;56;21533;-76
2022/05/31 07:11:01;;;;;;;1.55;1.33;;;12.60;69.70;;;;;;2374010;56;21035;-76
2022/05/31 07:13:28;;;;;;;3.40;1.30;;;12.70;69.20;;;;;;2374447;56;21122;-76
2022/05/31 07:15:59;;;;;;;2.87;1.27;;;12.70;69.20;;;;;;2373560;56;21612;-76
2022/05/31 07:18:27;;;;;;;5.87;1.40;;;12.80;69.70;;;;;;2374341;56;21039;-76
2022/05/31 07:20:55;;;;;;;2.05;1.20;;;12.90;68.40;;;;;;2374278;56;21067;-76
2022/05/31 07:23:22;;;;;;;2.75;1.40;;;13.00;68.10;;;;;;2373848;56;21089;-76
2022/05/31 07:25:51;;;;;;;2.35;1.10;;;13.00;68.10;;;;;;2374007;56;21102;-76
2022/05/31 07:28:18;;;;;;;1.52;1.30;;;13.10;67.70;;;;;;2374310;56;21141;-75
2022/05/31 07:30:46;;;;;;;1.20;0.98;;;13.20;67.60;;;;;;2374169;56;21181;-76
2022/05/31 07:33:13;;;;;;;1.20;1.10;;;13.20;67.40;;;;;;2373454;56;21094;-76
2022/05/31 07:35:41;;;;;;;2.03;1.20;;;13.30;67.80;;;;;;2512490;52;21624;-76
2022/05/31 07:38:09;;;;;;;2.58;1.10;;;13.40;66.90;;;;;;2374471;56;21031;-76
2022/05/31 07:40:36;;;;;;;2.12;1.17;;;13.40;66.70;;;;;;2373674;56;21122;-76
2022/05/31 07:43:04;;;;;;;2.80;1.00;;;13.50;67.20;;;;;;2436181;52;21035;-76
2022/05/31 07:45:31;;;;;;;2.75;1.10;;;13.60;67.10;;;;;;2372308;56;21094;-76
2022/05/31 07:47:58;;;;;;;2.15;0.90;;;13.60;66.30;;;;;;2425697;52;21126;-76
2022/05/31 07:50:26;;;;;;;3.00;0.95;;;13.70;66.30;;;;;;2414076;52;21051;-76
2022/05/31 07:52:53;;;;;;;3.95;0.98;;;13.70;64.80;;;;;;2373561;56;21049;-76
2022/05/31 07:55:21;;;;;;;1.77;0.88;;;13.80;64.80;;;;;;2373148;56;21600;-76
2022/05/31 08:00:34;;;;;;;1.67;0.90;;;14.00;65.20;;;;;;2381199;52;21063;-74
2022/05/31 08:03:01;;;;;;;3.22;1.02;;;14.10;65.80;;;;;;2373435;56;21023;-76
2022/05/31 08:05:30;;;;;;;1.55;1.08;;;14.20;64.70;;;;;;2373337;56;21632;-76
2022/05/31 08:07:57;;;;;;;1.33;1.00;;;14.20;64.50;;;;;;2374000;56;21114;-76
2022/05/31 08:10:24;;;;;;;1.20;0.80;;;14.30;64.80;;;;;;2373734;56;21557;-77
2022/05/31 08:12:51;;;;;;;2.15;1.15;;;14.40;63.70;;;;;;2447252;52;21514;-77
2022/05/31 08:15:19;;;;;;;1.27;0.80;;;14.40;62.70;;;;;;2434373;52;21040;-76
2022/05/31 08:17:46;;;;;;;1.75;1.20;;;14.40;62.00;;;;;;2373425;56;21684;-76
2022/05/31 08:20:16;;;;;;;2.92;0.70;;;14.50;62.50;;;;;;2372627;56;21589;-76
2022/05/31 08:22:44;;;;;;;1.65;1.02;;;14.60;62.90;;;;;;2373515;56;21114;-77
2022/05/31 08:25:12;;;;;;;1.67;0.90;;;14.60;62.70;;;;;;2373365;56;21047;-77
2022/05/31 08:27:39;;;;;;;2.85;1.00;;;14.70;62.50;;;;;;2372007;56;21057;-76
2022/05/31 08:30:08;;;;;;;2.05;1.02;;;14.70;62.10;;;;;;2372275;56;21095;-76
2022/05/31 08:32:36;;;;;;;0.93;0.70;;;14.70;61.70;;;;;;2625716;52;22133;-76
2022/05/31 08:35:06;;;;;;;4.45;1.33;;;14.70;61.80;;;;;;2372278;56;21043;-77
2022/05/31 08:37:33;;;;;;;0.98;0.80;;;14.70;61.60;;;;;;2373827;56;21173;-76
2022/05/31 08:40:00;;;;;;;1.98;0.85;;;14.80;61.60;;;;;;2371995;56;21051;-76
2022/05/31 08:42:40;;;;;;;4.12;1.50;;;14.90;61.70;;;;;;2371622;56;21539;-76
2022/05/31 08:59:00;;;;;;;2.25;1.00;;;15.50;59.20;;;;;;2366881;53;21015;-74
2022/05/31 09:01:30;;;;;;;2.35;0.95;;;15.50;59.80;;;;;;2548462;52;21055;-76
2022/05/31 09:04:04;;;;;;;1.02;0.80;;;15.50;58.40;;;;;;2375182;56;21111;-77
2022/05/31 09:06:43;;;;;;;2.70;1.10;;;15.60;58.60;;;;;;2375383;56;21106;-76
2022/05/31 09:09:15;;;;;;;1.17;0.75;;;15.60;58.60;;;;;;2374148;56;21039;-76
2022/05/31 09:11:52;;;;;;;1.87;0.90;;;15.60;58.20;;;;;;2375930;53;21103;-76
2022/05/31 09:14:28;;;;;;;2.65;0.82;;;15.60;58.10;;;;;;2434537;52;21098;-76
2022/05/31 09:17:02;;;;;;;2.58;0.90;;;15.70;57.80;;;;;;2374966;56;21094;-76
2022/05/31 09:19:36;;;;;;;2.58;0.90;;;15.70;57.30;;;;;;2375440;56;21035;-77
2022/05/31 09:22:04;;;;;;;2.12;0.68;;;15.80;57.60;;;;;;2405767;52;21118;-76
2022/05/31 09:24:31;;;;;;;0.60;0.60;;;15.80;57.10;;;;;;2374632;56;21055;-76
2022/05/31 09:27:07;;;;;;;1.27;0.70;;;15.90;57.90;;;;;;2374601;56;21042;-76
2022/05/31 09:29:46;;;;;;;1.42;0.62;;;16.00;57.30;;;;;;2375239;56;21028;-76
2022/05/31 09:32:25;;;;;;;0.57;0.57;;;16.10;57.00;;;;;;2375252;56;21110;-76
2022/05/31 09:35:09;;;;;;;0.62;0.60;;;16.10;56.90;;;;;;2375200;56;21102;-76
2022/05/31 09:38:01;;;;;;;3.78;0.93;;;16.20;56.80;;;;;;2393096;52;21094;-76
2022/05/31 09:43:23;;;;;;;1.25;0.80;;;16.30;55.70;;;;;;2328961;57;22609;-75
2022/05/31 09:46:00;;;;;;;1.08;0.80;;;16.50;56.00;;;;;;2389738;53;21061;-76
2022/05/31 09:48:27;;;;;;;2.00;1.10;;;16.60;55.60;;;;;;2362202;56;21101;-76
2022/05/31 09:51:09;;;;;;;0.98;0.73;;;16.60;54.30;;;;;;2375383;56;21034;-76
2022/05/31 09:59:23;;;;;;;1.98;1.10;;;16.70;53.80;;;;;;2375206;52;21014;-76
2022/05/31 10:01:51;;;;;;;2.10;1.00;;;16.70;54.50;;;;;;2419982;52;21098;-77
2022/05/31 10:04:24;;;;;;;2.70;1.10;;;16.80;55.00;;;;;;2508670;52;21111;-75
2022/05/31 10:06:54;;;;;;;1.02;0.90;;;16.90;55.10;;;;;;2294682;58;21051;-74
2022/05/31 10:09:28;;;;;;;1.52;1.02;;;17.00;55.00;;;;;;2293541;58;21191;-74
2022/05/31 10:12:16;;;;;;;1.60;0.82;;;17.00;54.60;;;;;;2293705;58;21060;-74
2022/05/31 10:14:45;;;;;;;1.40;0.90;;;17.10;54.30;;;;;;2293273;58;21036;-75
2022/05/31 10:17:30;;;;;;;2.10;1.00;;;17.10;53.50;;;;;;2528401;55;21065;-75
2022/05/31 10:23:00;;;;;;;1.37;0.80;;;17.10;52.90;;;;;;2327234;57;22112;-74
2022/05/31 10:25:33;;;;;;;1.27;0.93;;;17.20;53.00;;;;;;2319444;58;21048;-75
2022/05/31 10:28:05;;;;;;;3.17;0.70;;;17.20;53.90;;;;;;2574055;53;21097;-74
2022/05/31 10:30:33;;;;;;;1.08;0.88;;;17.20;54.40;;;;;;2346881;57;21092;-74
2022/05/31 10:33:07;;;;;;;1.42;0.90;;;17.30;53.00;;;;;;2347979;57;21088;-74
2022/05/31 10:35:36;;;;;;;0.95;0.70;;;17.20;52.50;;;;;;2347265;57;21045;-74
2022/05/31 10:38:09;;;;;;;1.60;0.70;;;17.30;52.10;;;;;;2347679;57;21120;-74
2022/05/31 10:40:46;;;;;;;1.23;0.60;;;17.30;52.10;;;;;;2347967;57;21033;-74
2022/05/31 10:43:32;;;;;;;1.20;0.90;;;17.40;52.50;;;;;;2347869;57;21037;-74
2022/05/31 10:46:03;;;;;;;1.12;0.80;;;17.60;52.40;;;;;;2347287;57;21414;-74
2022/05/31 10:48:30;;;;;;;2.05;0.85;;;17.60;50.60;;;;;;2346825;57;21045;-74
2022/05/31 10:51:04;;;;;;;1.92;0.73;;;17.70;49.90;;;;;;2347862;57;21080;-74
2022/05/31 10:53:44;;;;;;;1.73;0.80;;;17.80;49.90;;;;;;2348120;57;21100;-74
2022/05/31 10:56:16;;;;;;;0.65;0.55;;;17.90;50.60;;;;;;2347489;57;21539;-75
2022/05/31 10:58:54;;;;;;;0.93;0.62;;;18.10;50.30;;;;;;2347637;57;21049;-75
2022/05/31 11:01:35;;;;;;;1.83;0.82;;;18.10;50.80;;;;;;2348023;57;21045;-74
2022/05/31 11:04:16;;;;;;;1.77;0.75;;;18.30;50.00;;;;;;2347100;57;21100;-75
2022/05/31 11:06:55;;;;;;;1.12;0.80;;;18.40;47.70;;;;;;2347337;57;21049;-74
2022/05/31 11:12:32;;;;;;;1.35;1.00;;;18.80;49.10;;;;;;2347776;57;21057;-74
2022/05/31 11:15:11;;;;;;;0.82;0.73;;;18.80;48.50;;;;;;2347518;57;21638;-75
2022/05/31 11:20:51;;;;;;;1.17;0.80;;;19.00;47.50;;;;;;2356170;57;22141;-75
2022/05/31 11:23:48;;;;;;;1.20;0.70;;;19.10;47.00;;;;;;2347091;57;21053;-75
2022/05/31 11:26:28;;;;;;;1.87;0.70;;;19.10;47.80;;;;;;2347469;57;21157;-75
2022/05/31 11:29:11;;;;;;;3.15;0.77;;;19.10;47.80;;;;;;2619522;52;21035;-75
2022/05/31 11:31:50;;;;;;;1.12;0.60;;;19.20;48.00;;;;;;2375466;56;21038;-75
2022/05/31 11:34:31;;;;;;;1.12;0.62;;;19.20;47.20;;;;;;2375301;56;21050;-75
2022/05/31 11:37:15;;;;;;;1.02;0.60;;;19.30;47.90;;;;;;2375066;56;21108;-75
2022/05/31 11:39:59;;;;;;;3.58;0.80;;;19.40;46.70;;;;;;2374339;56;21103;-75
2022/05/31 11:42:40;;;;;;;2.00;0.80;;;19.40;46.40;;;;;;2375602;56;21562;-75
2022/05/31 11:45:25;;;;;;;0.98;0.73;;;19.60;46.80;;;;;;2375305;56;21075;-75
2022/05/31 11:48:16;;;;;;;1.67;0.70;;;19.50;44.60;;;;;;2374215;56;21050;-75
2022/05/31 11:50:51;;;;;;;0.52;0.52;;;19.40;46.00;;;;;;2374386;56;21058;-75
2022/05/31 11:53:48;;;;;;;1.33;0.70;;;19.50;45.70;;;;;;2628697;52;21106;-75
2022/05/31 11:56:24;;;;;;;1.55;0.85;;;19.50;45.20;;;;;;2372907;56;21111;-75
2022/05/31 11:58:57;;;;;;;4.47;1.17;;;19.50;44.50;;;;;;2372450;56;21113;-75
2022/05/31 12:01:29;;;;;;;1.42;0.57;;;19.60;45.40;;;;;;2373083;56;21063;-75
2022/05/31 12:06:40;;;;;;;1.00;0.80;;;19.60;46.40;;;;;;2354901;57;22086;-75
2022/05/31 12:09:14;;;;;;;0.75;0.57;;;19.60;44.30;;;;;;2368610;56;21569;-75
2022/05/31 12:11:49;;;;;;;0.95;0.60;;;19.60;44.10;;;;;;2374532;56;21518;-75
2022/05/31 12:14:18;;;;;;;1.10;0.75;;;19.60;44.30;;;;;;2374199;56;21043;-75
2022/05/31 12:16:46;;;;;;;1.37;0.62;;;19.60;44.60;;;;;;2374077;56;21037;-75
2022/05/31 12:19:25;;;;;;;2.58;0.82;;;19.60;45.40;;;;;;2374193;56;21441;-75
2022/05/31 12:21:59;;;;;;;1.10;0.70;;;19.60;44.20;;;;;;2373649;56;21122;-75
2022/05/31 12:24:29;;;;;;;1.77;0.75;;;19.70;43.90;;;;;;2374488;56;21043;-75
2022/05/31 12:27:04;;;;;;;0.85;0.82;;;19.70;43.90;;;;;;2374158;56;21042;-75
2022/05/31 12:29:40;;;;;;;3.35;0.85;;;19.70;44.40;;;;;;2374530;56;21043;-76
2022/05/31 12:32:29;;;;;;;0.75;0.65;;;19.70;44.30;;;;;;2627710;52;21114;-76
2022/05/31 12:34:57;;;;;;;1.83;0.82;;;19.70;44.50;;;;;;2374827;56;21075;-76
2022/05/31 12:37:24;;;;;;;1.80;0.95;;;19.80;44.00;;;;;;2374698;56;21078;-76
2022/05/31 12:40:27;;;;;;;2.03;0.70;;;19.80;44.20;;;;;;2374204;56;21051;-76
2022/05/31 12:42:54;;;;;;;0.70;0.60;;;19.90;45.20;;;;;;2374765;56;21079;-76
2022/05/31 12:45:36;;;;;;;0.60;0.60;;;20.00;44.40;;;;;;2374482;56;21546;-76
2022/05/31 12:48:15;;;;;;;0.85;0.60;;;20.10;45.80;;;;;;2375074;56;21047;-76
2022/05/31 12:51:07;;;;;;;1.62;1.00;;;20.20;45.00;;;;;;2373963;56;21114;-76
2022/05/31 12:54:12;;;;;;;1.10;0.70;;;20.20;44.20;;;;;;2375177;56;21031;-76
2022/05/31 12:57:19;;;;;;;0.62;0.60;;;20.20;42.90;;;;;;2373570;56;21035;-76
2022/05/31 12:59:53;;;;;;;1.55;0.90;;;20.10;42.60;;;;;;2375118;56;21331;-76
2022/05/31 13:02:40;;;;;;;0.85;0.60;;;20.00;41.80;;;;;;2374919;56;21529;-76
2022/05/31 13:05:37;;;;;;;0.82;0.70;;;20.00;41.90;;;;;;2374836;56;21047;-76
2022/05/31 13:08:14;;;;;;;1.10;0.70;;;20.00;42.00;;;;;;2373392;56;21094;-76
2022/05/31 13:21:58;;;;;;;0.82;0.60;;;19.70;42.70;;;;;;2373947;56;21003;-76
2022/05/31 13:24:27;;;;;;;0.98;0.68;;;19.70;42.40;;;;;;2372992;56;21039;-76
2022/05/31 13:26:57;;;;;;;1.75;0.70;;;19.70;42.80;;;;;;2373037;56;21082;-76
2022/05/31 13:29:24;;;;;;;1.67;0.50;;;19.70;42.80;;;;;;2373575;56;21097;-76
2022/05/31 13:31:54;;;;;;;2.25;0.70;;;19.70;42.60;;;;;;2373990;56;21066;-76
2022/05/31 13:34:28;;;;;;;0.85;0.70;;;19.60;41.70;;;;;;2373456;56;21110;-76
2022/05/31 13:36:57;;;;;;;0.75;0.52;;;19.60;42.40;;;;;;2373082;56;21055;-76
2022/05/31 13:39:26;;;;;;;2.03;1.12;;;19.60;42.30;;;;;;2373318;56;21123;-77
2022/05/31 13:41:57;;;;;;;1.12;0.50;;;19.60;43.00;;;;;;2373724;56;21118;-75
2022/05/31 13:44:31;;;;;;;2.35;0.80;;;19.60;44.40;;;;;;2373073;56;21050;-77
2022/05/31 13:47:02;;;;;;;2.05;0.70;;;19.50;44.20;;;;;;2626350;52;21086;-76
2022/05/31 13:49:38;;;;;;;0.60;0.60;;;19.50;43.80;;;;;;2373314;56;21053;-76
2022/05/31 13:54:43;;;;;;;0.90;0.70;;;19.50;43.70;;;;;;2334182;57;27779;-76
2022/05/31 13:57:14;;;;;;;0.80;0.62;;;19.60;45.30;;;;;;2344953;57;21112;-76
2022/05/31 13:59:48;;;;;;;1.52;0.70;;;19.60;45.80;;;;;;2561555;54;21135;-76
2022/05/31 14:02:20;;;;;;;0.90;0.77;;;19.70;46.70;;;;;;2319871;58;21075;-76
2022/05/31 14:04:54;;;;;;;0.80;0.57;;;19.70;46.80;;;;;;2319279;58;21068;-76
2022/05/31 14:07:28;;;;;;;1.30;0.80;;;19.80;46.30;;;;;;2317010;58;21171;-76
2022/05/31 14:09:56;;;;;;;1.05;0.73;;;19.80;46.20;;;;;;2318258;58;21115;-76
2022/05/31 14:12:26;;;;;;;0.60;0.52;;;19.90;46.00;;;;;;2318942;58;21083;-76
2022/05/31 14:17:35;;;;;;;2.67;0.77;;;20.00;47.30;;;;;;2356328;56;22078;-76
2022/05/31 14:20:05;;;;;;;0.80;0.70;;;20.00;46.60;;;;;;2374317;56;21101;-76
2022/05/31 14:22:35;;;;;;;0.77;0.70;;;19.90;46.10;;;;;;2374311;56;21075;-76